createdAt,value
2023-02-16T02:07:51.222Z,522.00
2023-02-16T02:08:51.219Z,522.00
2023-02-16T02:09:51.224Z,526.00
2023-02-16T02:10:51.246Z,525.00
2023-02-16T02:26:51.278Z,525.00
2023-02-16T03:30:51.331Z,529.00
2023-02-16T03:32:51.221Z,530.00
2023-02-16T03:33:51.226Z,523.00
2023-02-16T03:34:51.229Z,525.00
2023-02-16T03:35:51.234Z,529.00
2023-02-16T03:36:51.230Z,530.00
2023-02-16T03:37:51.237Z,531.00
2023-02-16T03:38:51.244Z,527.00
2023-02-16T03:39:51.251Z,532.00
2023-02-16T03:40:51.279Z,533.00
2023-02-16T03:41:51.269Z,537.00
2023-02-16T03:43:51.284Z,529.00
2023-02-16T03:45:51.320Z,531.00
2023-02-16T03:46:51.269Z,532.00
2023-02-16T03:47:51.263Z,528.00
2023-02-16T03:48:51.264Z,528.00
2023-02-16T03:49:51.261Z,528.00
2023-02-16T03:50:51.258Z,529.00
2023-02-16T03:51:51.268Z,530.00
2023-02-16T03:52:51.260Z,532.00
2023-02-16T03:53:51.264Z,536.00
2023-02-16T03:54:51.269Z,535.00
2023-02-16T03:55:51.272Z,530.00
2023-02-16T03:56:51.290Z,534.00
2023-02-16T03:57:51.297Z,536.00
2023-02-16T03:58:51.290Z,540.00
2023-02-16T03:59:51.298Z,539.00
2023-02-16T04:00:51.309Z,533.00
2023-02-16T04:01:51.327Z,531.00
2023-02-16T04:02:51.307Z,537.00
2023-02-16T04:03:51.335Z,532.00
2023-02-16T04:04:51.303Z,532.00
2023-02-16T04:05:51.294Z,534.00
2023-02-16T04:06:51.285Z,530.00
2023-02-16T04:07:51.297Z,534.00
2023-02-16T04:08:51.299Z,539.00
2023-02-16T04:09:51.301Z,540.00
2023-02-16T04:10:51.301Z,542.00
2023-02-16T04:11:51.318Z,544.00
2023-02-16T04:12:51.330Z,541.00
2023-02-16T04:13:51.338Z,539.00
2023-02-16T04:14:51.340Z,543.00
2023-02-16T04:15:51.348Z,545.00
2023-02-16T04:16:51.372Z,544.00
2023-02-16T04:17:51.359Z,544.00
2023-02-16T04:18:51.372Z,540.00
2023-02-16T04:19:51.385Z,540.00
2023-02-16T04:20:51.382Z,541.00
2023-02-16T04:21:51.368Z,541.00
2023-02-16T04:22:51.370Z,541.00
2023-02-16T04:23:51.377Z,543.00
2023-02-16T04:24:51.380Z,543.00
2023-02-16T04:25:51.362Z,536.00
2023-02-16T04:26:51.362Z,537.00
2023-02-16T04:27:51.370Z,540.00
2023-02-16T04:28:51.358Z,540.00
2023-02-16T04:29:51.366Z,537.00
2023-02-16T04:30:51.448Z,535.00
2023-02-16T04:31:51.440Z,537.00
2023-02-16T04:32:51.326Z,538.00
2023-02-16T04:33:51.324Z,536.00
2023-02-16T04:34:51.321Z,541.00
2023-02-16T04:35:51.329Z,541.00
2023-02-16T04:36:51.322Z,535.00
2023-02-16T04:37:51.330Z,535.00
2023-02-16T04:38:51.324Z,532.00
2023-02-16T04:39:51.337Z,531.00
2023-02-16T04:40:51.339Z,530.00
2023-02-16T04:41:51.329Z,535.00
2023-02-16T04:42:51.329Z,532.00
2023-02-16T04:43:51.330Z,529.00
2023-02-16T04:44:51.332Z,534.00
2023-02-16T04:45:51.399Z,537.00
2023-02-16T04:46:51.337Z,536.00
2023-02-16T04:47:51.339Z,534.00
2023-02-16T04:48:51.339Z,533.00
2023-02-16T04:49:51.339Z,532.00
2023-02-16T04:50:51.328Z,533.00
2023-02-16T04:51:51.315Z,535.00
2023-02-16T04:52:51.329Z,533.00
2023-02-16T04:53:51.314Z,535.00
2023-02-16T04:54:51.316Z,531.00
2023-02-16T04:55:51.300Z,536.00
2023-02-16T04:56:51.292Z,533.00
2023-02-16T04:57:51.303Z,535.00
2023-02-16T04:58:51.296Z,531.00
2023-02-16T04:59:51.284Z,529.00
2023-02-16T05:00:51.301Z,532.00
2023-02-16T05:01:51.314Z,532.00
2023-02-16T05:02:51.261Z,532.00
2023-02-16T05:03:51.263Z,532.00
2023-02-16T05:04:51.301Z,533.00
2023-02-16T05:05:51.268Z,534.00
2023-02-16T05:06:51.263Z,536.00
2023-02-16T05:07:51.275Z,539.00
2023-02-16T05:08:51.271Z,537.00
2023-02-16T05:09:51.266Z,538.00
2023-02-16T05:10:51.285Z,539.00
2023-02-16T05:11:51.272Z,528.00
2023-02-16T05:12:51.255Z,531.00
2023-02-16T05:13:51.254Z,531.00
2023-02-16T05:14:51.245Z,532.00
2023-02-16T05:15:51.270Z,531.00
2023-02-16T05:16:51.241Z,532.00
2023-02-16T05:17:51.247Z,528.00
2023-02-16T05:18:51.245Z,528.00
2023-02-16T05:19:51.256Z,526.00
2023-02-16T05:20:51.285Z,527.00
2023-02-16T05:21:51.236Z,528.00
2023-02-16T05:22:51.234Z,528.00
2023-02-16T05:23:51.221Z,525.00
2023-02-16T05:24:51.235Z,527.00
2023-02-16T05:25:51.224Z,528.00
2023-02-16T08:21:51.008Z,544.00
2023-02-16T09:44:51.456Z,559.00
2023-02-16T14:28:48.147Z,524.00
2023-02-16T14:29:48.137Z,524.00
2023-02-16T14:30:48.114Z,526.00
2023-02-16T14:31:48.186Z,528.00
2023-02-16T14:32:48.045Z,523.00
2023-02-16T14:33:48.040Z,524.00
2023-02-16T14:34:48.006Z,520.00
2023-02-16T14:35:47.998Z,518.00
2023-02-16T14:36:47.978Z,519.00
2023-02-16T14:37:47.947Z,522.00
2023-02-16T14:38:47.953Z,522.00
2023-02-16T14:40:06.828Z,517.00
2023-02-16T14:40:48.910Z,518.00
2023-02-16T14:41:47.879Z,518.00
2023-02-16T14:42:47.849Z,517.00
2023-02-16T14:43:47.835Z,519.00
2023-02-16T14:44:47.812Z,514.00
2023-02-16T14:45:47.783Z,523.00
2023-02-16T14:46:47.789Z,525.00
2023-02-16T14:47:47.747Z,518.00
2023-02-16T14:48:47.716Z,529.00
2023-02-16T14:49:47.719Z,524.00
2023-02-16T14:50:47.693Z,521.00
2023-02-16T14:51:47.682Z,525.00
2023-02-16T14:52:47.686Z,530.00
2023-02-16T14:53:47.633Z,529.00
2023-02-16T14:54:47.688Z,527.00
2023-02-16T14:55:47.592Z,528.00
2023-02-16T14:56:47.565Z,526.00
2023-02-16T14:57:47.556Z,532.00
2023-02-16T14:58:47.524Z,520.00
2023-02-16T14:59:47.500Z,528.00
2023-02-16T15:00:47.530Z,526.00
2023-02-16T15:01:47.468Z,522.00
2023-02-16T15:02:47.470Z,522.00
2023-02-16T15:03:47.523Z,520.00
2023-02-16T15:04:47.433Z,523.00
2023-02-16T15:05:47.406Z,521.00
2023-02-16T15:06:47.401Z,516.00
2023-02-16T15:07:47.553Z,520.00
2023-02-16T15:08:48.850Z,518.00
2023-02-16T15:09:47.348Z,520.00
2023-02-16T15:10:47.342Z,517.00
2023-02-16T15:11:47.345Z,517.00
2023-02-16T15:12:47.308Z,520.00
2023-02-16T15:13:47.302Z,517.00
2023-02-16T15:14:47.280Z,520.00
2023-02-16T15:15:47.351Z,515.00
2023-02-16T15:16:47.247Z,521.00
2023-02-16T15:17:47.251Z,523.00
2023-02-16T15:18:47.227Z,522.00
2023-02-16T15:19:47.226Z,523.00
2023-02-16T15:20:47.223Z,528.00
2023-02-16T15:21:47.222Z,519.00
2023-02-16T15:22:47.198Z,521.00
2023-02-16T15:23:47.185Z,523.00
2023-02-16T15:24:47.193Z,530.00
2023-02-16T15:25:47.166Z,529.00
2023-02-16T15:26:47.163Z,536.00
2023-02-16T15:27:47.199Z,536.00
2023-02-16T15:28:47.166Z,536.00
2023-02-16T15:29:47.142Z,532.00
2023-02-16T15:30:47.178Z,526.00
2023-02-16T15:31:47.249Z,530.00
2023-02-16T15:32:47.113Z,541.00
2023-02-16T15:33:47.105Z,539.00
2023-02-16T15:34:47.104Z,541.00
2023-02-16T15:35:47.072Z,536.00
2023-02-16T15:36:47.084Z,540.00
2023-02-16T15:37:47.076Z,540.00
2023-02-16T15:38:47.079Z,541.00
2023-02-16T15:40:02.954Z,542.00
2023-02-16T15:40:48.071Z,540.00
2023-02-16T15:41:47.069Z,541.00
2023-02-16T15:42:47.056Z,541.00
2023-02-16T15:43:47.044Z,543.00
2023-02-16T15:44:47.028Z,544.00
2023-02-16T15:45:46.996Z,546.00
2023-02-16T15:46:47.081Z,541.00
2023-02-16T15:47:46.970Z,546.00
2023-02-16T15:48:46.958Z,550.00
2023-02-16T15:49:46.960Z,546.00
2023-02-16T15:50:46.939Z,547.00
2023-02-16T15:51:46.907Z,544.00
2023-02-16T15:52:46.900Z,549.00
2023-02-16T15:53:46.887Z,549.00
2023-02-16T15:54:46.878Z,548.00
2023-02-16T15:55:46.852Z,556.00
2023-02-16T15:56:46.842Z,548.00
2023-02-16T15:57:46.839Z,544.00
2023-02-16T15:58:46.807Z,548.00
2023-02-16T15:59:46.802Z,545.00
2023-02-16T16:00:46.771Z,549.00
2023-02-16T16:01:46.773Z,547.00
2023-02-16T16:02:46.738Z,547.00
2023-02-16T16:03:46.734Z,548.00
2023-02-16T16:04:46.729Z,548.00
2023-02-16T16:05:46.699Z,550.00
2023-02-16T16:06:46.692Z,554.00
2023-02-16T16:07:46.672Z,556.00
2023-02-16T16:08:46.653Z,546.00
2023-02-16T16:09:46.641Z,551.00
2023-02-16T16:10:46.618Z,548.00
2023-02-16T16:11:46.613Z,554.00
2023-02-16T16:12:46.652Z,551.00
2023-02-16T16:13:46.596Z,552.00
2023-02-16T16:14:46.587Z,556.00
2023-02-16T16:15:46.612Z,553.00
2023-02-16T16:16:46.555Z,555.00
2023-02-16T16:17:46.549Z,551.00
2023-02-16T16:18:46.544Z,557.00
2023-02-16T16:19:46.521Z,557.00
2023-02-16T16:20:46.553Z,552.00
2023-02-16T16:21:46.489Z,561.00
2023-02-16T16:22:46.486Z,563.00
2023-02-16T16:23:46.486Z,559.00
2023-02-16T16:24:46.458Z,560.00
2023-02-16T16:25:46.446Z,557.00
2023-02-16T16:26:46.432Z,561.00
2023-02-16T16:27:46.425Z,566.00
2023-02-16T16:28:46.432Z,563.00
2023-02-16T16:29:46.396Z,568.00
2023-02-16T16:30:46.406Z,567.00
2023-02-16T16:31:46.463Z,568.00
2023-02-16T16:32:46.374Z,568.00
2023-02-16T16:33:46.349Z,571.00
2023-02-16T16:34:46.341Z,572.00
2023-02-16T16:35:46.364Z,568.00
2023-02-16T16:36:46.347Z,569.00
2023-02-16T16:37:46.324Z,569.00
2023-02-16T16:38:46.330Z,571.00
2023-02-16T16:39:46.320Z,573.00
2023-02-16T16:40:46.314Z,583.00
2023-02-16T16:41:46.304Z,577.00
2023-02-16T16:42:46.314Z,580.00
2023-02-16T16:43:46.320Z,578.00
2023-02-16T16:44:46.277Z,575.00
2023-02-16T16:45:46.334Z,575.00
2023-02-16T16:46:46.275Z,580.00
2023-02-16T16:47:46.263Z,583.00
2023-02-16T16:48:46.236Z,582.00
2023-02-16T16:49:46.220Z,584.00
2023-02-16T16:50:46.228Z,583.00
2023-02-16T16:51:46.198Z,582.00
2023-02-16T16:52:46.203Z,582.00
2023-02-16T16:53:46.184Z,579.00
2023-02-16T16:54:46.172Z,586.00
2023-02-16T16:55:46.170Z,585.00
2023-02-16T16:56:46.164Z,584.00
2023-02-16T16:57:46.148Z,589.00
2023-02-16T16:58:46.152Z,590.00
2023-02-16T16:59:46.139Z,585.00
2023-02-16T17:00:46.140Z,587.00
2023-02-16T17:01:46.195Z,586.00
2023-02-16T17:02:46.146Z,586.00
2023-02-16T17:03:46.146Z,582.00
2023-02-16T17:04:46.115Z,586.00
2023-02-16T17:05:46.119Z,587.00
2023-02-16T17:06:46.136Z,595.00
2023-02-16T17:07:46.093Z,593.00
2023-02-16T17:08:46.090Z,591.00
2023-02-16T17:09:46.082Z,582.00
2023-02-16T17:10:46.089Z,591.00
2023-02-16T17:11:46.066Z,594.00
2023-02-16T17:12:46.064Z,593.00
2023-02-16T17:13:46.113Z,589.00
2023-02-16T17:14:46.035Z,593.00
2023-02-16T17:15:46.029Z,594.00
2023-02-16T17:16:46.075Z,592.00
2023-02-16T17:17:46.017Z,597.00
2023-02-16T17:18:46.014Z,598.00
2023-02-16T17:19:46.000Z,590.00
2023-02-16T17:20:45.998Z,597.00
2023-02-16T17:21:46.010Z,595.00
2023-02-16T17:22:45.988Z,597.00
2023-02-16T17:23:52.854Z,596.00
2023-02-16T17:25:45.970Z,597.00
2023-02-16T17:26:45.970Z,597.00
2023-02-16T20:53:45.400Z,532.00
2023-02-16T20:54:45.402Z,533.00
2023-02-16T20:55:45.407Z,531.00
2023-02-16T20:56:45.396Z,529.00
2023-02-16T20:57:45.379Z,535.00
2023-02-16T20:58:45.388Z,532.00
2023-02-16T20:59:45.374Z,530.00
2023-02-16T21:00:45.410Z,528.00
2023-02-16T21:01:45.413Z,528.00
2023-02-16T21:02:45.374Z,529.00
2023-02-16T21:03:45.364Z,528.00
2023-02-16T21:04:45.354Z,527.00
2023-02-16T21:05:45.350Z,526.00
2023-02-16T21:06:45.349Z,526.00
2023-02-16T21:07:45.353Z,526.00
2023-02-16T21:08:45.349Z,526.00
2023-02-16T21:09:45.357Z,526.00
2023-02-16T21:10:45.362Z,523.00
2023-02-16T21:11:45.369Z,524.00
2023-02-16T21:12:45.362Z,522.00
2023-02-16T21:13:45.365Z,521.00
2023-02-16T21:14:45.369Z,520.00
2023-02-16T21:15:45.374Z,520.00
2023-02-16T21:16:45.367Z,515.00
2023-02-16T21:17:45.353Z,516.00
2023-02-16T21:18:45.334Z,510.00
2023-02-16T21:19:45.336Z,508.00
2023-02-16T21:20:45.319Z,511.00
2023-02-16T21:21:45.310Z,511.00
2023-02-16T21:22:45.338Z,508.00
2023-02-16T21:23:45.324Z,503.00
2023-02-16T21:24:45.289Z,503.00
2023-02-16T21:25:45.300Z,505.00
2023-02-16T21:26:45.288Z,506.00
2023-02-16T21:27:45.299Z,505.00
2023-02-16T21:28:45.302Z,505.00
2023-02-16T21:29:45.291Z,505.00
2023-02-16T21:30:45.283Z,505.00
2023-02-16T21:31:45.388Z,508.00
2023-02-16T21:32:45.287Z,505.00
2023-02-16T21:33:45.298Z,506.00
2023-02-16T21:34:45.277Z,506.00
2023-02-16T21:35:45.271Z,507.00
2023-02-16T21:36:45.269Z,506.00
2023-02-16T21:37:45.267Z,505.00
2023-02-16T21:38:45.267Z,505.00
2023-02-16T21:39:45.268Z,500.00
2023-02-16T21:40:45.270Z,500.00
2023-02-16T21:41:45.271Z,503.00
2023-02-16T21:42:45.256Z,505.00
2023-02-16T21:43:45.267Z,507.00
2023-02-16T21:44:45.266Z,508.00
2023-02-16T21:45:45.294Z,505.00
2023-02-16T21:46:45.264Z,504.00
2023-02-16T21:47:45.270Z,503.00
2023-02-16T21:48:45.265Z,502.00
2023-02-16T21:49:45.249Z,502.00
2023-02-16T21:50:45.287Z,502.00
2023-02-16T21:51:45.271Z,503.00
2023-02-16T21:52:45.242Z,505.00
2023-02-16T21:53:45.252Z,501.00
2023-02-16T21:54:45.235Z,502.00
2023-02-16T21:55:45.248Z,508.00
2023-02-16T21:56:45.228Z,503.00
2023-02-16T21:57:45.227Z,509.00
2023-02-16T21:58:45.228Z,503.00
2023-02-16T21:59:45.219Z,507.00
2023-02-16T22:00:45.231Z,505.00
2023-02-16T22:01:45.218Z,506.00
2023-02-16T22:02:45.209Z,503.00
2023-02-16T22:03:45.227Z,502.00
2023-02-16T22:04:45.205Z,502.00
2023-02-16T22:05:45.206Z,500.00
2023-02-16T22:06:45.220Z,502.00
2023-02-16T22:07:45.209Z,501.00
2023-02-16T22:08:45.275Z,504.00
2023-02-16T22:09:45.201Z,504.00
2023-02-16T22:10:45.202Z,506.00
2023-02-16T22:11:45.227Z,508.00
2023-02-16T22:12:45.207Z,506.00
2023-02-16T22:13:45.210Z,504.00
2023-02-16T22:14:45.188Z,505.00
2023-02-16T22:15:45.177Z,505.00
2023-02-16T22:16:45.218Z,506.00
2023-02-16T22:17:45.168Z,508.00
2023-02-16T22:18:45.185Z,507.00
2023-02-16T22:19:45.156Z,501.00
2023-02-16T22:20:45.165Z,502.00
2023-02-16T22:21:45.160Z,504.00
2023-02-16T22:22:45.140Z,503.00
2023-02-16T22:23:45.154Z,504.00
2023-02-16T22:24:45.129Z,501.00
2023-02-16T22:25:45.125Z,503.00
2023-02-16T22:26:45.139Z,504.00
2023-02-16T22:27:45.125Z,503.00
2023-02-16T22:28:45.118Z,505.00
2023-02-16T22:29:45.107Z,503.00
2023-02-16T22:30:45.514Z,504.00
2023-02-16T22:31:45.277Z,504.00
2023-02-16T22:32:45.099Z,502.00
2023-02-16T22:33:45.107Z,502.00
2023-02-16T22:34:45.087Z,506.00
2023-02-16T22:35:45.073Z,507.00
2023-02-16T22:36:45.095Z,505.00
2023-02-16T22:37:45.099Z,507.00
2023-02-16T22:38:45.095Z,506.00
2023-02-16T22:39:45.097Z,507.00
2023-02-16T22:40:45.090Z,506.00
2023-02-16T22:41:45.094Z,508.00
2023-02-16T22:42:45.086Z,507.00
2023-02-16T22:43:45.079Z,506.00
2023-02-16T22:44:45.076Z,503.00
2023-02-16T22:45:45.108Z,506.00
2023-02-16T22:46:45.062Z,501.00
2023-02-16T22:47:45.059Z,502.00
2023-02-16T22:48:45.065Z,502.00
2023-02-16T22:49:45.073Z,502.00
2023-02-16T22:50:45.067Z,501.00
2023-02-16T22:51:45.072Z,502.00
2023-02-16T22:52:45.073Z,503.00
2023-02-16T22:53:45.066Z,504.00
2023-02-16T22:54:45.063Z,504.00
2023-02-16T22:55:45.049Z,505.00
2023-02-16T22:56:45.051Z,508.00
2023-02-16T22:57:45.043Z,508.00
2023-02-16T22:58:45.047Z,507.00
2023-02-16T22:59:45.054Z,505.00
2023-02-16T23:00:45.067Z,505.00
2023-02-16T23:01:45.047Z,507.00
2023-02-16T23:02:45.035Z,507.00
2023-02-16T23:03:45.048Z,504.00
2023-02-16T23:04:45.036Z,504.00
2023-02-16T23:05:45.029Z,505.00
2023-02-16T23:06:45.030Z,507.00
2023-02-16T23:07:45.038Z,508.00
2023-02-16T23:08:45.031Z,506.00
2023-02-16T23:09:45.066Z,508.00
2023-02-16T23:10:45.030Z,507.00
2023-02-16T23:11:45.029Z,508.00
2023-02-16T23:12:45.027Z,508.00
2023-02-16T23:13:45.040Z,509.00
2023-02-16T23:14:45.029Z,509.00
2023-02-16T23:15:45.038Z,509.00
2023-02-16T23:16:45.052Z,509.00
2023-02-16T23:17:45.022Z,513.00
2023-02-16T23:18:45.018Z,511.00
2023-02-16T23:19:45.049Z,510.00
2023-02-16T23:20:45.020Z,508.00
2023-02-16T23:21:45.014Z,509.00
2023-02-16T23:22:45.010Z,507.00
2023-02-16T23:23:45.016Z,510.00
2023-02-16T23:24:45.015Z,508.00
2023-02-16T23:25:45.018Z,506.00
2023-02-16T23:26:45.005Z,509.00
2023-02-16T23:27:45.000Z,506.00
2023-02-16T23:28:45.002Z,510.00
2023-02-16T23:29:45.005Z,509.00
2023-02-16T23:30:45.052Z,508.00
2023-02-16T23:31:45.044Z,510.00
2023-02-16T23:32:45.005Z,505.00
2023-02-16T23:33:45.018Z,506.00
2023-02-16T23:34:45.023Z,505.00
2023-02-16T23:35:45.013Z,503.00
2023-02-16T23:36:45.031Z,502.00
2023-02-16T23:37:45.020Z,505.00
2023-02-16T23:38:45.020Z,503.00
2023-02-16T23:39:45.016Z,506.00
2023-02-16T23:40:45.036Z,504.00
2023-02-16T23:41:45.031Z,505.00
2023-02-16T23:42:45.032Z,505.00
2023-02-16T23:43:45.036Z,503.00
2023-02-16T23:44:45.034Z,506.00
2023-02-16T23:45:45.051Z,504.00
2023-02-16T23:46:45.024Z,504.00
2023-02-16T23:47:45.036Z,501.00
2023-02-16T23:48:45.028Z,503.00
2023-02-16T23:49:45.025Z,506.00
2023-02-16T23:50:45.039Z,507.00
2023-02-16T23:51:45.046Z,505.00
2023-02-16T23:52:45.040Z,507.00
2023-02-16T23:53:45.038Z,502.00
2023-02-16T23:54:45.031Z,502.00
2023-02-16T23:55:45.047Z,504.00
2023-02-16T23:56:45.045Z,504.00
2023-02-16T23:57:45.039Z,505.00
2023-02-16T23:58:45.124Z,505.00
2023-02-16T23:59:45.061Z,507.00
